createdAt,value
2022-11-24T00:01:09.032Z,17.65
2022-11-24T00:03:37.055Z,18.23
2022-11-24T00:06:11.100Z,17.80
2022-11-24T00:08:39.243Z,17.67
2022-11-24T00:11:08.596Z,17.88
2022-11-24T00:13:39.021Z,18.40
2022-11-24T00:16:10.056Z,17.73
2022-11-24T00:18:37.943Z,17.40
2022-11-24T00:21:05.597Z,16.38
2022-11-24T00:23:33.278Z,16.65
2022-11-24T00:26:08.467Z,16.95
2022-11-24T00:28:36.647Z,16.67
2022-11-24T00:31:04.848Z,17.02
2022-11-24T00:33:32.774Z,17.17
2022-11-24T00:36:01.086Z,16.20
2022-11-24T00:38:28.684Z,17.13
2022-11-24T00:40:56.250Z,16.95
2022-11-24T00:43:23.945Z,17.48
2022-11-24T00:45:51.769Z,17.25
2022-11-24T00:48:19.498Z,14.75
2022-11-24T00:50:55.893Z,14.05
2022-11-24T00:53:23.516Z,14.52
2022-11-24T00:55:51.250Z,13.80
2022-11-24T00:58:18.905Z,14.07
2022-11-24T01:00:46.575Z,13.50
2022-11-24T01:03:16.886Z,12.80
2022-11-24T01:05:47.340Z,12.75
2022-11-24T01:08:15.031Z,12.80
2022-11-24T01:10:42.648Z,12.13
2022-11-24T01:13:12.084Z,12.35
2022-11-24T01:15:40.145Z,11.48
2022-11-24T01:18:07.825Z,11.27
2022-11-24T01:20:37.512Z,11.50
2022-11-24T01:23:05.212Z,11.73
2022-11-24T01:25:32.809Z,10.60
2022-11-24T01:28:00.397Z,10.98
2022-11-24T01:30:27.991Z,10.93
2022-11-24T01:33:01.685Z,11.40
2022-11-24T01:35:29.425Z,11.30
2022-11-24T01:37:57.077Z,10.40
2022-11-24T01:40:25.205Z,9.90
2022-11-24T01:42:53.655Z,10.63
2022-11-24T01:45:24.590Z,10.27
2022-11-24T01:47:52.242Z,10.52
2022-11-24T01:50:20.199Z,10.30
2022-11-24T01:52:49.300Z,10.20
2022-11-24T01:55:18.601Z,10.90
2022-11-24T01:57:49.131Z,10.90
2022-11-24T02:00:18.740Z,11.52
2022-11-24T02:02:46.571Z,9.77
2022-11-24T02:05:34.576Z,9.73
2022-11-24T02:08:02.941Z,10.95
2022-11-24T02:10:38.159Z,10.93
2022-11-24T02:13:06.139Z,9.68
2022-11-24T02:15:38.033Z,11.18
2022-11-24T02:18:05.860Z,10.88
2022-11-24T02:23:21.530Z,9.90
2022-11-24T02:25:55.319Z,9.70
2022-11-24T02:28:23.586Z,8.95
2022-11-24T02:30:51.644Z,9.85
2022-11-24T02:33:21.433Z,9.00
2022-11-24T02:35:49.217Z,9.10
2022-11-24T02:38:16.864Z,9.73
2022-11-24T02:40:46.539Z,8.65
2022-11-24T02:43:20.163Z,8.98
2022-11-24T02:45:47.920Z,8.43
2022-11-24T02:48:16.545Z,8.90
2022-11-24T02:50:44.332Z,8.52
2022-11-24T02:53:12.065Z,8.77
2022-11-24T02:55:39.601Z,11.02
2022-11-24T02:58:07.270Z,10.60
2022-11-24T03:00:34.896Z,9.18
2022-11-24T03:03:02.988Z,8.45
2022-11-24T03:05:30.570Z,9.50
2022-11-24T03:07:58.334Z,8.63
2022-11-24T03:10:26.084Z,8.27
2022-11-24T03:12:53.689Z,8.35
2022-11-24T03:15:21.273Z,8.50
2022-11-24T03:17:48.892Z,8.48
2022-11-24T03:20:16.621Z,8.40
2022-11-24T03:22:44.223Z,8.93
2022-11-24T03:25:11.856Z,8.52
2022-11-24T03:27:39.594Z,8.85
2022-11-24T03:30:07.570Z,8.43
2022-11-24T03:32:35.123Z,9.15
2022-11-24T03:35:02.749Z,8.77
2022-11-24T03:37:30.499Z,8.75
2022-11-24T03:39:58.242Z,8.88
2022-11-24T03:42:25.866Z,9.02
2022-11-24T03:44:53.413Z,8.57
2022-11-24T03:47:21.019Z,8.93
2022-11-24T03:49:48.675Z,9.25
2022-11-24T03:52:16.367Z,8.38
2022-11-24T03:54:44.025Z,8.57
2022-11-24T03:57:11.606Z,8.80
2022-11-24T03:59:39.292Z,8.48
2022-11-24T04:02:07.769Z,8.60
2022-11-24T04:04:35.542Z,8.98
2022-11-24T04:07:03.190Z,9.00
2022-11-24T04:09:30.749Z,8.60
2022-11-24T04:12:16.892Z,8.77
2022-11-24T04:14:44.535Z,8.02
2022-11-24T04:17:12.149Z,8.30
2022-11-24T04:19:42.559Z,8.13
2022-11-24T04:22:10.229Z,8.10
2022-11-24T04:24:37.831Z,8.13
2022-11-24T04:27:05.470Z,8.15
2022-11-24T04:29:33.154Z,7.95
2022-11-24T04:32:00.846Z,8.63
2022-11-24T04:34:28.473Z,8.27
2022-11-24T04:36:56.263Z,8.00
2022-11-24T04:39:28.726Z,7.95
2022-11-24T04:41:56.691Z,7.97
2022-11-24T04:44:24.321Z,8.27
2022-11-24T04:46:52.075Z,8.40
2022-11-24T04:49:19.846Z,8.55
2022-11-24T04:51:50.453Z,8.50
2022-11-24T04:54:18.078Z,9.20
2022-11-24T04:56:54.696Z,9.80
2022-11-24T04:59:22.415Z,9.30
2022-11-24T05:01:50.167Z,8.90
2022-11-24T05:04:20.366Z,10.55
2022-11-24T05:06:48.276Z,8.68
2022-11-24T05:12:33.827Z,9.10
2022-11-24T05:15:02.619Z,9.57
2022-11-24T05:17:31.075Z,9.60
2022-11-24T05:19:58.918Z,9.13
2022-11-24T05:22:27.120Z,9.68
2022-11-24T05:24:54.754Z,10.25
2022-11-24T05:27:22.334Z,9.70
2022-11-24T05:29:50.116Z,10.23
2022-11-24T05:32:17.791Z,9.88
2022-11-24T05:34:45.386Z,9.05
2022-11-24T05:37:12.929Z,9.55
2022-11-24T05:40:10.972Z,8.85
2022-11-24T05:42:46.657Z,8.95
2022-11-24T05:45:17.057Z,8.73
2022-11-24T05:47:44.993Z,8.60
2022-11-24T05:50:21.295Z,8.00
2022-11-24T05:52:49.591Z,8.18
2022-11-24T05:55:19.323Z,9.32
2022-11-24T05:57:47.240Z,8.68
2022-11-24T06:03:40.878Z,8.00
2022-11-24T06:06:08.536Z,8.68
2022-11-24T06:08:36.158Z,8.40
2022-11-24T06:11:20.675Z,8.43
2022-11-24T06:13:48.759Z,7.65
2022-11-24T06:16:48.973Z,7.53
2022-11-24T06:23:04.756Z,7.80
2022-11-24T06:25:32.301Z,8.18
2022-11-24T06:28:03.340Z,8.15
2022-11-24T06:30:31.001Z,8.40
2022-11-24T06:32:59.044Z,8.00
2022-11-24T06:35:26.851Z,8.73
2022-11-24T06:37:54.570Z,8.85
2022-11-24T06:40:22.288Z,9.13
2022-11-24T06:42:53.115Z,10.30
2022-11-24T06:45:20.737Z,10.73
2022-11-24T06:47:48.434Z,11.77
2022-11-24T06:50:16.171Z,13.00
2022-11-24T06:52:43.777Z,12.18
2022-11-24T06:55:11.368Z,12.07
2022-11-24T06:57:39.713Z,12.18
2022-11-24T07:00:11.016Z,14.27
2022-11-24T07:02:44.163Z,13.65
2022-11-24T07:05:13.509Z,13.73
2022-11-24T07:07:41.341Z,13.98
2022-11-24T07:10:09.144Z,15.63
2022-11-24T07:12:36.765Z,15.73
2022-11-24T07:15:04.535Z,16.38
2022-11-24T07:17:32.219Z,16.02
2022-11-24T07:19:59.819Z,16.05
2022-11-24T07:22:27.397Z,18.13
2022-11-24T07:24:54.959Z,16.88
2022-11-24T07:27:22.649Z,16.48
2022-11-24T07:29:50.530Z,16.00
2022-11-24T07:32:21.781Z,16.02
2022-11-24T07:34:49.401Z,14.32
2022-11-24T07:37:17.293Z,11.95
2022-11-24T07:39:44.901Z,11.43
2022-11-24T07:42:12.725Z,10.52
2022-11-24T07:44:40.706Z,10.75
2022-11-24T07:47:08.337Z,11.32
2022-11-24T07:49:36.082Z,11.60
2022-11-24T07:52:04.460Z,11.57
2022-11-24T07:54:32.319Z,11.55
2022-11-24T07:57:00.030Z,11.45
2022-11-24T07:59:28.053Z,13.43
2022-11-24T08:02:23.084Z,12.75
2022-11-24T08:04:50.688Z,12.88
2022-11-24T08:07:18.258Z,13.70
2022-11-24T08:10:11.498Z,14.02
2022-11-24T08:12:39.200Z,13.48
2022-11-24T08:15:10.861Z,13.30
2022-11-24T08:17:39.067Z,14.05
2022-11-24T08:20:07.274Z,13.30
2022-11-24T08:22:34.797Z,13.23
2022-11-24T08:25:02.424Z,13.07
2022-11-24T08:27:30.726Z,12.70
2022-11-24T08:29:58.326Z,13.25
2022-11-24T08:32:25.939Z,15.45
2022-11-24T08:34:59.512Z,13.90
2022-11-24T08:37:31.106Z,15.57
2022-11-24T08:39:58.715Z,15.55
2022-11-24T08:42:26.348Z,14.50
2022-11-24T08:44:58.980Z,15.63
2022-11-24T08:47:26.866Z,15.18
2022-11-24T08:49:54.442Z,14.32
2022-11-24T08:52:22.002Z,15.25
2022-11-24T08:54:50.348Z,15.68
2022-11-24T08:57:21.748Z,15.38
2022-11-24T08:59:49.637Z,15.00
2022-11-24T09:02:17.239Z,14.35
2022-11-24T09:04:45.724Z,14.90
2022-11-24T09:07:13.436Z,15.73
2022-11-24T09:09:41.053Z,16.63
2022-11-24T09:12:14.338Z,15.88
2022-11-24T09:14:42.395Z,16.50
2022-11-24T09:17:10.135Z,16.23
2022-11-24T09:19:37.927Z,16.45
2022-11-24T09:22:05.500Z,14.98
2022-11-24T09:24:33.238Z,14.38
2022-11-24T09:27:00.756Z,15.20
2022-11-24T09:29:28.335Z,14.25
2022-11-24T09:31:55.857Z,14.50
2022-11-24T09:34:23.414Z,14.43
2022-11-24T09:36:51.620Z,15.18
2022-11-24T09:39:19.187Z,15.73
2022-11-24T09:42:07.247Z,14.45
2022-11-24T09:44:40.913Z,15.98
2022-11-24T09:47:19.578Z,15.10
2022-11-24T09:50:19.713Z,14.98
2022-11-24T09:53:01.116Z,15.38
2022-11-24T09:55:35.473Z,15.38
2022-11-24T09:58:14.073Z,15.35
2022-11-24T10:00:42.810Z,15.18
2022-11-24T10:03:20.503Z,15.15
2022-11-24T10:05:50.584Z,15.35
2022-11-24T10:08:18.301Z,15.10
2022-11-24T10:10:53.792Z,16.75
2022-11-24T10:13:36.706Z,18.40
2022-11-24T10:16:04.393Z,17.77
2022-11-24T10:18:41.631Z,18.67
2022-11-24T10:21:21.453Z,18.45
2022-11-24T10:24:07.101Z,18.95
2022-11-24T10:26:39.028Z,17.52
2022-11-24T10:29:27.128Z,17.48
2022-11-24T10:31:56.074Z,18.65
2022-11-24T10:34:23.651Z,17.85
2022-11-24T10:37:09.723Z,18.05
2022-11-24T10:39:40.407Z,17.52
2022-11-24T10:42:16.886Z,18.38
2022-11-24T10:44:44.461Z,18.88
2022-11-24T10:47:22.886Z,19.50
2022-11-24T10:49:56.225Z,18.40
2022-11-24T10:52:25.584Z,19.85
2022-11-24T10:55:03.581Z,18.55
2022-11-24T10:57:32.805Z,20.05
2022-11-24T11:00:01.212Z,22.38
2022-11-24T11:02:30.747Z,21.05
2022-11-24T11:04:58.507Z,21.92
2022-11-24T11:07:27.019Z,21.48
2022-11-24T11:10:13.157Z,22.02
2022-11-24T11:12:44.900Z,21.85
2022-11-24T11:15:23.178Z,20.02
2022-11-24T11:17:52.551Z,20.60
2022-11-24T11:20:23.578Z,21.23
2022-11-24T11:22:51.318Z,22.35
2022-11-24T11:25:24.974Z,22.23
2022-11-24T11:27:52.534Z,21.52
2022-11-24T11:36:12.983Z,22.70
2022-11-24T11:38:41.184Z,21.60
2022-11-24T11:41:14.757Z,22.20
2022-11-24T11:43:42.478Z,22.10
2022-11-24T11:46:18.046Z,22.15
2022-11-24T11:48:46.914Z,23.70
2022-11-24T11:51:24.825Z,23.08
2022-11-24T11:54:01.761Z,23.08
2022-11-24T11:56:31.099Z,21.58
2022-11-24T11:59:07.993Z,23.20
2022-11-24T12:01:54.205Z,23.73
2022-11-24T12:04:21.847Z,23.00
2022-11-24T12:07:07.896Z,23.20
2022-11-24T12:09:37.014Z,22.75
2022-11-24T12:12:10.910Z,22.13
2022-11-24T12:14:47.639Z,21.80
2022-11-24T12:17:38.007Z,22.38
2022-11-24T12:20:23.705Z,23.95
2022-11-24T12:23:06.608Z,22.38
2022-11-24T12:25:40.770Z,23.58
2022-11-24T12:28:20.536Z,22.15
2022-11-24T12:31:17.346Z,23.10
2022-11-24T12:34:00.972Z,23.83
2022-11-24T12:36:36.925Z,23.58
2022-11-24T12:39:26.761Z,22.35
2022-11-24T12:42:03.340Z,23.02
2022-11-24T12:44:52.349Z,23.10
2022-11-24T12:47:30.974Z,22.52
2022-11-24T12:50:19.475Z,22.77
2022-11-24T12:53:02.857Z,24.10
2022-11-24T12:55:33.525Z,23.67
2022-11-24T12:58:19.846Z,22.90
2022-11-24T13:00:56.568Z,22.27
2022-11-24T13:03:33.217Z,20.98
2022-11-24T13:06:21.193Z,22.75
2022-11-24T13:08:49.105Z,21.25
2022-11-24T13:11:22.658Z,22.20
2022-11-24T13:13:59.230Z,21.77
2022-11-24T13:16:59.313Z,22.23
2022-11-24T13:19:15.900Z,21.92
2022-11-24T13:21:45.404Z,24.33
2022-11-24T13:24:20.057Z,21.38
2022-11-24T13:26:49.300Z,21.95
2022-11-24T13:29:29.081Z,20.92
2022-11-24T13:32:19.924Z,21.48
2022-11-24T13:34:54.745Z,21.70
2022-11-24T13:37:34.968Z,22.25
2022-11-24T13:40:13.526Z,20.67
2022-11-24T13:42:57.291Z,20.35
2022-11-24T13:45:40.791Z,19.27
2022-11-24T13:48:35.563Z,21.30
2022-11-24T13:51:03.153Z,22.10
2022-11-24T13:53:36.622Z,18.60
2022-11-24T13:56:06.911Z,19.08
2022-11-24T13:58:44.998Z,19.40
2022-11-24T14:01:19.180Z,19.42
2022-11-24T14:04:21.688Z,19.58
2022-11-24T14:06:37.826Z,19.15
2022-11-24T14:09:17.751Z,19.80
2022-11-24T14:11:47.406Z,17.77
2022-11-24T14:14:20.766Z,18.15
2022-11-24T14:16:48.517Z,17.58
2022-11-24T14:19:19.696Z,18.20
2022-11-24T14:21:49.615Z,16.92
2022-11-24T14:24:39.802Z,16.95
2022-11-24T14:27:14.482Z,18.67
2022-11-24T14:29:54.246Z,18.83
2022-11-24T14:32:22.261Z,16.23
2022-11-24T14:34:52.001Z,15.82
2022-11-24T14:37:20.183Z,15.93
2022-11-24T14:39:47.788Z,15.65
2022-11-24T14:42:21.550Z,16.30
2022-11-24T14:45:03.817Z,15.75
2022-11-24T14:47:32.504Z,15.93
2022-11-24T14:50:12.036Z,18.08
2022-11-24T14:52:48.169Z,19.13
2022-11-24T14:55:32.251Z,16.33
2022-11-24T14:58:00.379Z,18.98
2022-11-24T15:00:30.165Z,19.25
2022-11-24T15:03:18.193Z,18.08
2022-11-24T15:05:55.813Z,18.70
2022-11-24T15:08:24.611Z,19.02
2022-11-24T15:10:59.576Z,23.38
2022-11-24T15:13:34.390Z,22.33
2022-11-24T15:16:03.785Z,24.58
2022-11-24T15:18:31.485Z,24.60
2022-11-24T15:20:59.342Z,25.20
2022-11-24T15:23:26.988Z,19.73
2022-11-24T15:25:54.939Z,19.08
2022-11-24T15:28:26.367Z,18.50
2022-11-24T15:31:00.313Z,18.20
2022-11-24T15:33:28.232Z,17.77
2022-11-24T15:35:55.982Z,18.73
2022-11-24T15:38:23.704Z,18.52
2022-11-24T15:40:52.278Z,18.45
2022-11-24T15:43:25.913Z,18.45
2022-11-24T15:45:53.693Z,21.52
2022-11-24T15:48:21.958Z,23.17
2022-11-24T15:50:50.402Z,21.27
2022-11-24T15:53:20.422Z,20.65
2022-11-24T15:55:48.276Z,20.83
2022-11-24T15:58:16.182Z,20.65
2022-11-24T16:00:44.405Z,21.90
2022-11-24T16:03:45.723Z,24.90
2022-11-24T16:05:59.651Z,25.02
2022-11-24T16:08:27.305Z,27.05
2022-11-24T16:10:55.909Z,26.67
2022-11-24T16:13:23.444Z,28.15
2022-11-24T16:15:51.088Z,29.40
2022-11-24T16:18:18.663Z,28.02
2022-11-24T16:20:46.211Z,29.60
2022-11-24T16:23:13.777Z,29.48
2022-11-24T16:25:41.356Z,28.67
2022-11-24T16:28:08.919Z,29.70
2022-11-24T16:30:36.522Z,27.48
2022-11-24T16:33:05.618Z,27.95
2022-11-24T16:35:34.054Z,29.50
2022-11-24T16:38:01.740Z,29.40
2022-11-24T16:40:31.915Z,29.45
2022-11-24T16:43:02.782Z,28.13
2022-11-24T16:45:30.416Z,29.40
2022-11-24T16:47:58.206Z,29.25
2022-11-24T16:50:25.763Z,29.83
2022-11-24T16:52:53.465Z,29.90
2022-11-24T16:55:21.084Z,30.77
2022-11-24T16:57:49.266Z,30.05
2022-11-24T17:00:17.054Z,30.27
2022-11-24T17:02:44.834Z,30.90
2022-11-24T17:05:12.577Z,30.00
2022-11-24T17:07:43.197Z,30.80
2022-11-24T17:10:11.032Z,29.90
2022-11-24T17:12:38.675Z,29.08
2022-11-24T17:18:23.435Z,29.98
2022-11-24T17:20:49.676Z,29.27
2022-11-24T17:23:19.485Z,28.92
2022-11-24T17:25:48.396Z,30.45
2022-11-24T17:28:18.443Z,29.58
2022-11-24T17:30:50.601Z,29.00
2022-11-24T17:33:18.263Z,30.30
2022-11-24T17:35:45.848Z,31.65
2022-11-24T17:38:13.606Z,30.67
2022-11-24T17:40:41.152Z,31.15
2022-11-24T17:43:09.748Z,29.55
2022-11-24T17:45:37.341Z,29.90
2022-11-24T17:48:04.966Z,29.80
2022-11-24T17:50:32.558Z,29.83
2022-11-24T17:53:00.319Z,30.45
2022-11-24T17:55:27.899Z,31.33
2022-11-24T17:57:56.367Z,33.00
2022-11-24T18:00:24.029Z,33.22
2022-11-24T18:02:51.618Z,30.85
2022-11-24T18:05:19.285Z,30.02
2022-11-24T18:07:46.981Z,30.60
2022-11-24T18:10:14.723Z,30.20
2022-11-24T18:12:42.255Z,29.70
2022-11-24T18:15:09.976Z,29.23
2022-11-24T18:17:37.712Z,29.38
2022-11-24T18:20:05.550Z,29.38
2022-11-24T18:23:03.982Z,28.33
2022-11-24T18:25:22.465Z,30.42
2022-11-24T18:27:50.106Z,30.17
2022-11-24T18:30:17.826Z,29.77
2022-11-24T18:32:45.432Z,29.80
2022-11-24T18:35:13.064Z,29.67
2022-11-24T18:37:44.242Z,28.05
2022-11-24T18:40:12.004Z,27.27
2022-11-24T18:42:39.615Z,29.08
2022-11-24T18:45:07.949Z,28.17
2022-11-24T18:47:35.610Z,27.52
2022-11-24T18:50:03.211Z,27.80
2022-11-24T18:52:30.789Z,28.08
2022-11-24T18:55:03.745Z,29.33
2022-11-24T18:57:31.668Z,29.45
2022-11-24T18:59:59.275Z,29.25
2022-11-24T19:02:27.044Z,28.90
2022-11-24T19:04:55.077Z,30.05
2022-11-24T19:07:22.683Z,26.83
2022-11-24T19:09:50.314Z,26.35
2022-11-24T19:12:18.006Z,26.08
2022-11-24T19:14:45.549Z,25.90
2022-11-24T19:17:13.173Z,26.88
2022-11-24T19:19:40.798Z,28.60
2022-11-24T19:22:09.531Z,28.08
2022-11-24T19:24:37.372Z,27.98
2022-11-24T19:27:05.030Z,28.55
2022-11-24T19:29:32.564Z,29.02
2022-11-24T19:32:00.210Z,29.33
2022-11-24T19:34:28.030Z,28.70
2022-11-24T19:36:55.591Z,29.20
2022-11-24T19:39:23.280Z,29.75
2022-11-24T19:41:50.966Z,30.05
2022-11-24T19:44:18.558Z,32.28
2022-11-24T19:46:46.165Z,32.83
2022-11-24T19:49:13.747Z,34.80
2022-11-24T19:51:41.379Z,33.83
2022-11-24T19:54:12.801Z,35.42
2022-11-24T19:56:41.354Z,36.35
2022-11-24T19:59:08.950Z,35.53
2022-11-24T20:01:37.628Z,35.13
2022-11-24T20:04:06.752Z,35.20
2022-11-24T20:06:36.761Z,39.28
2022-11-24T20:09:05.599Z,37.35
2022-11-24T20:11:33.127Z,35.30
2022-11-24T20:14:00.774Z,35.72
2022-11-24T20:16:30.392Z,33.83
2022-11-24T20:19:02.467Z,33.85
2022-11-24T20:21:33.708Z,34.20
2022-11-24T20:24:06.277Z,35.72
2022-11-24T20:26:38.459Z,34.67
2022-11-24T20:29:06.673Z,35.33
2022-11-24T20:31:35.620Z,36.97
2022-11-24T20:34:04.632Z,38.78
2022-11-24T20:36:32.622Z,35.67
2022-11-24T20:39:01.568Z,36.80
2022-11-24T20:41:30.606Z,41.80
2022-11-24T20:43:59.805Z,38.92
2022-11-24T20:46:28.753Z,35.72
2022-11-24T20:48:56.565Z,32.80
2022-11-24T20:51:25.209Z,33.35
2022-11-24T20:53:54.159Z,32.08
2022-11-24T20:56:26.434Z,30.70
2022-11-24T20:58:57.144Z,54.30
2022-11-24T21:01:26.566Z,36.10
2022-11-24T21:03:55.391Z,33.05
2022-11-24T21:06:23.248Z,32.50
2022-11-24T21:08:51.002Z,32.83
2022-11-24T21:11:19.479Z,36.00
2022-11-24T21:13:48.765Z,39.97
2022-11-24T21:16:17.949Z,46.80
2022-11-24T21:18:47.008Z,47.45
2022-11-24T21:21:15.222Z,39.97
2022-11-24T21:23:45.209Z,76.78
2022-11-24T21:26:16.508Z,52.97
2022-11-24T21:28:45.645Z,48.30
2022-11-24T21:31:19.171Z,38.88
2022-11-24T21:33:48.318Z,33.28
2022-11-24T21:36:17.935Z,31.05
2022-11-24T21:38:50.081Z,30.98
2022-11-24T21:41:17.853Z,33.95
2022-11-24T21:43:45.502Z,31.73
2022-11-24T21:46:13.658Z,30.88
2022-11-24T21:48:42.041Z,31.25
2022-11-24T21:51:12.878Z,31.75
2022-11-24T21:53:41.250Z,30.75
2022-11-24T21:56:12.701Z,28.77
2022-11-24T21:58:47.238Z,30.13
2022-11-24T22:01:15.356Z,27.90
2022-11-24T22:03:43.277Z,28.95
2022-11-24T22:06:11.079Z,28.92
2022-11-24T22:08:39.021Z,27.92
2022-11-24T22:11:08.093Z,27.88
2022-11-24T22:13:35.689Z,27.40
2022-11-24T22:16:32.431Z,29.13
2022-11-24T22:19:00.923Z,28.25
2022-11-24T22:21:32.434Z,28.85
2022-11-24T22:24:00.742Z,28.48
2022-11-24T22:26:28.955Z,27.52
2022-11-24T22:28:57.319Z,27.83
2022-11-24T22:31:29.190Z,29.13
2022-11-24T22:33:57.352Z,30.02
2022-11-24T22:36:27.242Z,30.25
2022-11-24T22:38:55.998Z,29.33
2022-11-24T22:41:26.329Z,29.35
2022-11-24T22:43:54.168Z,28.55
2022-11-24T22:46:22.689Z,29.05
2022-11-24T22:48:52.833Z,28.73
2022-11-24T22:51:21.586Z,28.15
2022-11-24T22:53:50.035Z,29.90
2022-11-24T22:56:17.868Z,30.33
2022-11-24T22:58:45.516Z,28.27
2022-11-24T23:01:14.471Z,28.63
2022-11-24T23:03:42.663Z,28.67
2022-11-24T23:06:14.212Z,29.48
2022-11-24T23:08:42.154Z,29.83
2022-11-24T23:11:19.948Z,29.05
2022-11-24T23:13:52.474Z,29.27
2022-11-24T23:16:20.400Z,27.95
2022-11-24T23:18:52.459Z,32.10
2022-11-24T23:21:25.151Z,31.42
2022-11-24T23:23:52.965Z,30.98
2022-11-24T23:26:25.009Z,29.77
2022-11-24T23:28:52.626Z,30.25
2022-11-24T23:31:24.001Z,30.15
2022-11-24T23:33:51.633Z,29.80
2022-11-24T23:36:20.222Z,29.50
2022-11-24T23:38:48.358Z,30.20
2022-11-24T23:41:20.105Z,31.98
2022-11-24T23:43:47.868Z,29.38
2022-11-24T23:46:17.518Z,30.38
2022-11-24T23:48:45.406Z,30.25
2022-11-24T23:54:00.239Z,29.13
2022-11-24T23:56:29.346Z,28.92
2022-11-24T23:58:56.963Z,29.80
